createdAt,value
2022-12-20T00:00:00.226Z,-1.01
2022-12-20T00:03:06.291Z,-0.92
2022-12-20T00:06:14.616Z,-1.19
2022-12-20T00:09:20.859Z,-1.11
2022-12-20T00:12:27.553Z,-1.24
2022-12-20T00:15:34.328Z,-1.07
2022-12-20T00:18:41.899Z,-1.08
2022-12-20T00:21:49.898Z,-1.29
2022-12-20T00:24:56.050Z,-1.02
2022-12-20T00:28:03.309Z,-1.21
2022-12-20T00:31:11.364Z,-1.10
2022-12-20T00:34:17.511Z,-0.85
2022-12-20T00:37:25.004Z,-1.15
2022-12-20T00:40:31.355Z,-1.11
2022-12-20T00:43:38.178Z,-0.96
2022-12-20T00:46:44.843Z,-0.85
2022-12-20T00:49:50.989Z,-1.11
2022-12-20T00:52:58.646Z,-0.86
2022-12-20T00:56:06.687Z,-0.79
2022-12-20T00:59:13.179Z,-1.21
2022-12-20T01:02:19.842Z,-0.86
2022-12-20T01:05:26.166Z,-0.44
2022-12-20T01:08:34.475Z,-1.12
2022-12-20T01:11:41.152Z,-0.88
2022-12-20T01:14:47.642Z,-0.94
2022-12-20T01:17:54.082Z,-0.98
2022-12-20T01:21:04.940Z,-1.02
2022-12-20T01:24:13.074Z,-0.76
2022-12-20T01:27:19.487Z,-1.00
2022-12-20T01:30:25.987Z,-1.54
2022-12-20T01:33:32.303Z,-0.94
2022-12-20T01:36:39.602Z,-0.80
2022-12-20T01:39:47.585Z,-0.72
2022-12-20T01:42:53.871Z,-0.96
2022-12-20T01:46:00.595Z,-0.78
2022-12-20T01:49:12.022Z,-0.59
2022-12-20T01:52:21.775Z,-0.63
2022-12-20T01:55:30.228Z,-0.48
2022-12-20T01:58:39.420Z,-1.01
2022-12-20T02:01:46.456Z,-1.08
2022-12-20T02:04:53.036Z,-1.27
2022-12-20T02:07:59.124Z,-1.38
2022-12-20T02:11:17.163Z,-1.83
2022-12-20T02:14:36.939Z,-1.47
2022-12-20T02:17:52.158Z,-1.83
2022-12-20T02:21:21.001Z,-1.53
2022-12-20T02:25:02.228Z,-1.13
2022-12-20T02:28:26.214Z,-1.17
2022-12-20T02:31:40.082Z,-1.46
2022-12-20T02:34:47.164Z,-1.59
2022-12-20T02:37:55.620Z,-1.24
2022-12-20T02:41:07.643Z,-1.79
2022-12-20T02:44:33.565Z,-2.39
2022-12-20T02:47:47.898Z,-2.50
2022-12-20T02:50:58.028Z,-1.78
2022-12-20T02:54:04.622Z,-1.70
2022-12-20T02:57:15.733Z,-1.73
2022-12-20T03:00:24.550Z,-2.21
2022-12-20T03:03:33.637Z,-2.30
2022-12-20T03:06:40.959Z,-2.19
2022-12-20T03:09:47.572Z,-2.07
2022-12-20T03:12:53.997Z,-2.44
2022-12-20T03:16:00.280Z,-2.00
2022-12-20T03:19:07.734Z,-2.02
2022-12-20T03:22:14.183Z,-2.20
2022-12-20T03:25:20.263Z,-2.19
2022-12-20T03:28:26.668Z,-1.66
2022-12-20T03:31:33.108Z,-1.77
2022-12-20T03:34:41.180Z,-1.67
2022-12-20T03:37:47.565Z,-2.44
2022-12-20T03:40:53.822Z,-3.17
2022-12-20T03:44:00.264Z,-2.54
2022-12-20T03:47:06.686Z,-2.42
2022-12-20T03:50:15.435Z,-2.66
2022-12-20T03:53:21.675Z,-2.50
2022-12-20T03:56:27.785Z,-2.58
2022-12-20T03:59:34.238Z,-2.31
2022-12-20T04:02:41.182Z,-2.82
2022-12-20T04:05:49.353Z,-2.40
2022-12-20T04:08:55.814Z,-3.19
2022-12-20T04:12:03.042Z,-3.49
2022-12-20T04:15:10.318Z,-2.95
2022-12-20T04:18:16.617Z,-3.04
2022-12-20T04:21:26.651Z,-2.79
2022-12-20T04:24:33.301Z,-3.42
2022-12-20T04:27:39.510Z,-3.81
2022-12-20T04:30:45.763Z,-3.79
2022-12-20T04:33:51.932Z,-3.65
2022-12-20T04:36:59.471Z,-4.00
2022-12-20T04:40:06.232Z,-3.18
2022-12-20T04:43:12.680Z,-2.78
2022-12-20T04:46:19.882Z,-2.46
2022-12-20T04:49:26.382Z,-2.69
2022-12-20T04:52:51.406Z,-2.62
2022-12-20T04:55:57.582Z,-2.80
2022-12-20T04:59:04.276Z,-2.31
2022-12-20T05:02:10.573Z,-2.64
2022-12-20T05:05:17.106Z,-3.21
2022-12-20T05:08:25.524Z,-3.22
2022-12-20T05:11:32.158Z,-2.56
2022-12-20T05:14:38.688Z,-2.27
2022-12-20T05:17:44.957Z,-3.13
2022-12-20T05:21:12.751Z,-3.02
2022-12-20T05:24:37.794Z,-3.88
2022-12-20T05:27:44.084Z,-3.61
2022-12-20T05:30:50.398Z,-3.77
2022-12-20T05:33:56.605Z,-3.56
2022-12-20T05:37:03.159Z,-3.11
2022-12-20T05:40:11.859Z,-3.57
2022-12-20T05:43:18.843Z,-2.97
2022-12-20T05:46:25.397Z,-3.08
2022-12-20T05:49:31.734Z,-3.12
2022-12-20T05:52:38.245Z,-3.03
2022-12-20T05:55:48.701Z,-2.72
2022-12-20T05:58:54.857Z,-3.00
2022-12-20T06:02:01.383Z,-3.68
2022-12-20T06:05:08.140Z,-3.56
2022-12-20T06:08:15.394Z,-3.34
2022-12-20T06:11:29.645Z,-3.16
2022-12-20T06:14:36.354Z,-2.97
2022-12-20T06:18:00.852Z,-3.03
2022-12-20T06:21:07.593Z,-2.82
2022-12-20T06:24:14.298Z,-2.86
2022-12-20T06:27:23.109Z,-2.88
2022-12-20T06:30:33.843Z,-2.72
2022-12-20T06:33:40.297Z,-2.31
2022-12-20T06:36:46.941Z,-2.86
2022-12-20T06:39:53.240Z,-3.03
2022-12-20T06:43:00.678Z,-2.69
2022-12-20T06:46:07.392Z,-2.74
2022-12-20T06:49:13.880Z,-3.07
2022-12-20T06:52:19.969Z,-2.78
2022-12-20T06:55:26.434Z,-2.91
2022-12-20T06:58:34.375Z,-2.13
2022-12-20T07:01:41.014Z,-2.21
2022-12-20T07:04:47.338Z,-1.74
2022-12-20T07:07:53.681Z,-1.79
2022-12-20T07:11:05.614Z,-1.80
2022-12-20T07:14:13.615Z,-1.74
2022-12-20T07:17:19.919Z,-1.84
2022-12-20T07:20:26.075Z,-1.60
2022-12-20T07:23:32.496Z,-1.40
2022-12-20T07:26:39.091Z,-1.30
2022-12-20T07:29:46.827Z,-1.09
2022-12-20T07:32:53.099Z,-1.10
2022-12-20T07:36:02.444Z,-1.09
2022-12-20T07:39:09.285Z,-1.04
2022-12-20T07:42:15.693Z,-0.92
2022-12-20T07:45:23.471Z,-0.68
2022-12-20T07:48:29.887Z,-0.54
2022-12-20T07:51:39.522Z,-0.24
2022-12-20T07:54:50.752Z,-0.62
2022-12-20T07:58:03.084Z,-0.46
2022-12-20T08:01:12.745Z,-0.18
2022-12-20T08:04:22.328Z,0.07
2022-12-20T08:07:29.575Z,-0.03
2022-12-20T08:10:36.450Z,-0.19
2022-12-20T08:13:46.538Z,-0.01
2022-12-20T08:16:55.479Z,0.09
2022-12-20T08:20:03.642Z,0.24
2022-12-20T08:23:10.039Z,0.41
2022-12-20T08:26:16.515Z,0.49
2022-12-20T08:29:22.685Z,0.66
2022-12-20T08:32:30.713Z,0.03
2022-12-20T08:35:37.139Z,0.74
2022-12-20T08:38:43.510Z,0.70
2022-12-20T08:41:50.546Z,0.32
2022-12-20T08:44:56.596Z,0.80
2022-12-20T08:48:04.725Z,0.24
2022-12-20T08:51:12.702Z,1.03
2022-12-20T08:54:19.348Z,0.32
2022-12-20T08:57:25.691Z,0.75
2022-12-20T09:00:32.023Z,1.11
2022-12-20T09:03:40.559Z,1.04
2022-12-20T09:06:47.061Z,1.14
2022-12-20T09:09:53.174Z,1.17
2022-12-20T09:12:59.189Z,1.87
2022-12-20T09:16:07.635Z,1.94
2022-12-20T09:19:16.040Z,1.74
2022-12-20T09:22:22.425Z,1.40
2022-12-20T09:25:29.793Z,1.43
2022-12-20T09:28:36.457Z,1.83
2022-12-20T09:31:42.969Z,1.89
2022-12-20T09:34:51.411Z,2.01
2022-12-20T09:37:58.332Z,2.48
2022-12-20T09:41:08.261Z,2.41
2022-12-20T09:44:19.479Z,2.57
2022-12-20T09:47:26.638Z,2.18
2022-12-20T09:50:44.921Z,2.55
2022-12-20T09:54:02.611Z,2.12
2022-12-20T09:57:22.048Z,2.32
2022-12-20T10:00:28.411Z,2.74
2022-12-20T10:03:37.307Z,2.40
2022-12-20T10:06:55.739Z,2.76
2022-12-20T10:10:23.045Z,3.03
2022-12-20T10:13:48.017Z,3.54
2022-12-20T10:16:59.930Z,3.53
2022-12-20T10:20:23.934Z,3.43
2022-12-20T10:23:38.775Z,4.09
2022-12-20T10:26:45.034Z,4.04
2022-12-20T10:29:53.072Z,4.26
2022-12-20T10:33:00.135Z,4.57
2022-12-20T10:36:20.663Z,4.45
2022-12-20T10:39:42.909Z,4.25
2022-12-20T10:42:49.241Z,4.42
2022-12-20T10:46:02.084Z,4.52
2022-12-20T10:49:31.393Z,4.04
2022-12-20T10:52:37.833Z,4.53
2022-12-20T10:55:45.671Z,4.14
2022-12-20T10:58:57.943Z,4.58
2022-12-20T11:02:21.428Z,4.62
2022-12-20T11:05:28.213Z,5.23
2022-12-20T11:08:40.766Z,5.40
2022-12-20T11:12:01.623Z,5.49
2022-12-20T11:15:20.555Z,5.08
2022-12-20T11:18:46.864Z,4.75
2022-12-20T11:22:04.865Z,5.14
2022-12-20T11:25:42.019Z,4.72
2022-12-20T11:29:07.629Z,5.54
2022-12-20T11:32:30.206Z,5.71
2022-12-20T11:35:46.806Z,4.91
2022-12-20T11:39:00.249Z,4.63
2022-12-20T11:42:14.945Z,4.79
2022-12-20T11:45:31.531Z,4.83
2022-12-20T11:48:53.162Z,4.72
2022-12-20T11:52:07.259Z,5.20
2022-12-20T11:55:21.822Z,5.53
2022-12-20T11:58:33.922Z,5.51
2022-12-20T12:01:46.116Z,5.25
2022-12-20T12:04:58.118Z,5.58
2022-12-20T12:08:13.465Z,5.16
2022-12-20T12:15:00.023Z,6.01
2022-12-20T12:18:12.998Z,5.88
2022-12-20T12:21:24.276Z,6.39
2022-12-20T12:24:34.738Z,6.23
2022-12-20T12:27:40.987Z,6.17
2022-12-20T12:30:50.223Z,6.09
2022-12-20T12:34:13.304Z,6.28
2022-12-20T12:37:44.622Z,6.20
2022-12-20T12:41:31.307Z,6.00
2022-12-20T12:44:43.909Z,6.04
2022-12-20T12:47:53.822Z,6.70
2022-12-20T12:51:03.327Z,6.40
2022-12-20T12:54:23.539Z,6.63
2022-12-20T12:57:29.569Z,6.26
2022-12-20T13:00:52.670Z,6.65
2022-12-20T13:04:23.616Z,6.18
2022-12-20T13:07:43.893Z,6.00
2022-12-20T13:11:02.852Z,7.03
2022-12-20T13:14:48.519Z,6.84
2022-12-20T13:17:56.194Z,6.78
2022-12-20T13:21:33.503Z,6.91
2022-12-20T13:24:53.717Z,6.27
2022-12-20T13:28:33.099Z,7.00
2022-12-20T13:31:39.445Z,6.22
2022-12-20T13:34:56.927Z,6.78
2022-12-20T13:38:06.215Z,5.75
2022-12-20T13:41:31.095Z,4.94
2022-12-20T13:44:46.728Z,4.96
2022-12-20T13:47:57.418Z,5.03
2022-12-20T13:51:04.114Z,4.48
2022-12-20T13:54:25.051Z,4.28
2022-12-20T13:57:42.219Z,4.37
2022-12-20T14:00:49.914Z,4.03
2022-12-20T14:03:56.709Z,3.71
2022-12-20T14:07:03.985Z,3.79
2022-12-20T14:10:20.943Z,3.64
2022-12-20T14:13:29.328Z,3.31
2022-12-20T14:16:35.708Z,3.52
2022-12-20T14:19:41.735Z,3.38
2022-12-20T14:23:02.573Z,3.51
2022-12-20T14:26:14.313Z,3.35
2022-12-20T14:29:27.212Z,2.78
2022-12-20T14:32:33.768Z,2.47
2022-12-20T14:35:48.476Z,2.33
2022-12-20T14:38:55.128Z,2.17
2022-12-20T14:42:03.962Z,2.15
2022-12-20T14:45:21.480Z,1.82
2022-12-20T14:48:28.007Z,1.77
2022-12-20T14:51:35.319Z,1.79
2022-12-20T14:58:26.053Z,2.05
2022-12-20T15:01:38.387Z,1.01
2022-12-20T15:04:52.585Z,1.48
2022-12-20T15:08:11.707Z,1.53
2022-12-20T15:11:23.027Z,1.44
2022-12-20T15:14:40.982Z,1.54
2022-12-20T15:17:48.851Z,1.66
2022-12-20T15:21:03.014Z,1.64
2022-12-20T15:24:13.660Z,1.60
2022-12-20T15:27:20.291Z,1.19
2022-12-20T15:30:26.953Z,0.79
2022-12-20T15:33:36.556Z,0.80
2022-12-20T15:36:42.904Z,0.75
2022-12-20T15:39:48.850Z,0.58
2022-12-20T15:42:55.444Z,0.56
2022-12-20T15:46:01.746Z,0.72
2022-12-20T15:49:13.667Z,0.74
2022-12-20T15:52:22.049Z,0.50
2022-12-20T15:55:28.274Z,0.55
2022-12-20T15:58:34.683Z,0.35
2022-12-20T16:01:41.485Z,0.37
2022-12-20T16:04:50.629Z,0.29
2022-12-20T16:07:57.135Z,-0.09
2022-12-20T16:11:03.563Z,0.21
2022-12-20T16:14:16.754Z,0.17
2022-12-20T16:17:23.169Z,0.41
2022-12-20T16:20:30.826Z,0.19
2022-12-20T16:23:37.137Z,0.07
2022-12-20T16:26:43.518Z,0.11
2022-12-20T16:29:49.571Z,-0.09
2022-12-20T16:32:58.907Z,-0.08
2022-12-20T16:36:07.138Z,0.94
2022-12-20T16:39:13.474Z,-0.17
2022-12-20T16:42:22.402Z,-0.12
2022-12-20T16:45:30.966Z,-0.11
2022-12-20T16:48:37.569Z,-0.51
2022-12-20T16:51:47.209Z,-0.37
2022-12-20T16:54:53.871Z,-0.24
2022-12-20T16:58:00.352Z,-0.30
2022-12-20T17:01:11.353Z,-0.43
2022-12-20T17:04:21.560Z,-0.39
2022-12-20T17:07:29.178Z,-0.59
2022-12-20T17:10:35.312Z,-0.98
2022-12-20T17:13:41.381Z,-1.18
2022-12-20T17:16:47.445Z,-1.63
2022-12-20T17:19:53.855Z,-1.45
2022-12-20T17:23:01.645Z,-1.59
2022-12-20T17:26:07.964Z,-1.49
2022-12-20T17:29:14.910Z,-0.99
2022-12-20T17:32:23.170Z,-0.28
2022-12-20T17:35:32.151Z,-0.97
2022-12-20T17:38:39.673Z,-0.80
2022-12-20T17:41:46.724Z,-1.03
2022-12-20T17:44:52.912Z,-1.36
2022-12-20T17:48:00.140Z,-1.52
2022-12-20T17:51:16.084Z,-1.20
2022-12-20T17:54:26.854Z,-1.23
2022-12-20T17:57:33.595Z,-1.09
2022-12-20T18:00:39.888Z,-0.96
2022-12-20T18:04:03.550Z,-1.11
2022-12-20T18:07:11.096Z,-1.30
2022-12-20T18:10:18.865Z,-1.33
2022-12-20T18:13:25.604Z,-1.11
2022-12-20T18:16:35.142Z,-1.26
2022-12-20T18:19:44.009Z,-1.50
2022-12-20T18:22:50.364Z,-1.78
2022-12-20T18:26:10.329Z,-1.60
2022-12-20T18:29:16.740Z,-2.39
2022-12-20T18:32:23.442Z,-2.54
2022-12-20T18:35:30.472Z,-2.08
2022-12-20T18:38:37.650Z,-2.01
2022-12-20T18:41:45.323Z,-2.26
2022-12-20T18:44:51.884Z,-2.24
2022-12-20T18:47:58.171Z,-2.19
2022-12-20T18:51:05.855Z,-1.54
2022-12-20T18:54:14.123Z,-2.00
2022-12-20T18:57:21.983Z,-2.39
2022-12-20T19:00:28.807Z,-3.03
2022-12-20T19:03:35.354Z,-2.58
2022-12-20T19:06:42.036Z,-2.30
2022-12-20T19:09:48.296Z,-2.67
2022-12-20T19:12:59.376Z,-2.60
2022-12-20T19:16:10.077Z,-2.36
2022-12-20T19:19:16.458Z,-2.50
2022-12-20T19:22:22.698Z,-2.40
2022-12-20T19:25:28.779Z,-2.21
2022-12-20T19:32:01.372Z,-2.42
2022-12-20T19:35:45.059Z,-2.14
2022-12-20T19:38:34.310Z,-1.94
2022-12-20T19:41:41.062Z,-1.74
2022-12-20T19:44:49.034Z,-1.74
2022-12-20T19:47:55.539Z,-1.79
2022-12-20T19:51:05.623Z,-1.73
2022-12-20T19:54:11.847Z,-1.91
2022-12-20T19:57:17.939Z,-2.58
2022-12-20T20:00:27.526Z,-2.59
2022-12-20T20:03:33.858Z,-3.41
2022-12-20T20:06:40.235Z,-3.34
2022-12-20T20:09:46.839Z,-3.34
2022-12-20T20:12:52.982Z,-3.45
2022-12-20T20:16:02.948Z,-3.23
2022-12-20T20:19:09.811Z,-2.56
2022-12-20T20:22:21.011Z,-2.42
2022-12-20T20:25:29.079Z,-2.70
2022-12-20T20:28:43.741Z,-3.22
2022-12-20T20:31:52.370Z,-3.16
2022-12-20T20:34:58.597Z,-2.94
2022-12-20T20:38:04.907Z,-2.46
2022-12-20T20:41:11.019Z,-2.66
2022-12-20T20:44:17.577Z,-2.66
2022-12-20T20:47:25.507Z,-2.88
2022-12-20T20:50:32.209Z,-2.60
2022-12-20T21:04:14.460Z,-3.06
2022-12-20T21:07:20.748Z,-3.53
2022-12-20T21:10:27.291Z,-2.81
2022-12-20T21:13:34.169Z,-3.14
2022-12-20T21:16:41.829Z,-3.53
2022-12-20T21:19:49.575Z,-3.38
2022-12-20T21:22:57.464Z,-3.57
2022-12-20T21:26:04.068Z,-2.82
2022-12-20T21:29:10.716Z,-2.35
2022-12-20T21:32:17.020Z,-2.78
2022-12-20T21:35:24.891Z,-3.22
2022-12-20T21:38:31.534Z,-3.30
2022-12-20T21:41:37.542Z,-3.33
2022-12-20T21:44:43.852Z,-3.63
2022-12-20T21:47:50.191Z,-3.73
2022-12-20T21:51:02.754Z,-4.04
2022-12-20T21:54:09.138Z,-3.42
2022-12-20T21:57:15.428Z,-4.02
2022-12-20T22:00:23.213Z,-4.03
2022-12-20T22:03:29.590Z,-3.38
2022-12-20T22:06:37.129Z,-2.96
2022-12-20T22:09:43.538Z,-2.86
2022-12-20T22:12:49.812Z,-2.79
2022-12-20T22:15:55.945Z,-3.18
2022-12-20T22:19:03.680Z,-3.84
2022-12-20T22:22:11.646Z,-3.49
2022-12-20T22:25:17.897Z,-2.90
2022-12-20T22:28:24.133Z,-3.06
2022-12-20T22:31:30.678Z,-3.05
2022-12-20T22:34:36.584Z,-3.21
2022-12-20T22:37:44.191Z,-3.54
2022-12-20T22:40:50.398Z,-3.05
2022-12-20T22:43:58.435Z,-3.72
2022-12-20T22:47:04.447Z,-4.23
2022-12-20T22:50:11.770Z,-4.29
2022-12-20T22:53:19.293Z,-4.42
2022-12-20T22:56:25.723Z,-4.36
2022-12-20T22:59:32.657Z,-3.52
2022-12-20T23:02:39.030Z,-3.36
2022-12-20T23:05:53.481Z,-4.34
2022-12-20T23:09:00.841Z,-4.09
2022-12-20T23:12:24.368Z,-3.91
2022-12-20T23:15:42.920Z,-4.05
2022-12-20T23:18:48.977Z,-3.51
2022-12-20T23:22:12.643Z,-3.70
2022-12-20T23:25:21.725Z,-3.66
2022-12-20T23:28:28.074Z,-4.49
2022-12-20T23:31:35.495Z,-4.45
2022-12-20T23:34:41.866Z,-3.66
2022-12-20T23:37:48.900Z,-3.64
2022-12-20T23:40:56.781Z,-3.60
2022-12-20T23:44:05.067Z,-3.88
2022-12-20T23:47:17.137Z,-4.13
2022-12-20T23:50:24.908Z,-4.45
2022-12-20T23:53:31.438Z,-4.15
2022-12-20T23:56:39.261Z,-3.54
2022-12-20T23:59:45.746Z,-3.93
